Time;durP1;ratioP1;P1;durP2;ratioP2;P2;SDS_P1;SDS_P2;PMS_P1;PMS_P2;Temp;Humidity;BMP_temperature;BMP_pressure;BME280_temperature;BME280_humidity;BME280_pressure;Samples;Min_cycle;Max_cycle;Signal;HPM_P1;HPM_P2
2021/06/19 00:01:05;;;;;;;7.70;4.90;;;;;;;;;;5034403;28;20032;-73
2021/06/19 00:03:31;;;;;;;6.03;4.30;;;;;;;;;;5033974;28;20147;-73
2021/06/19 00:05:57;;;;;;;6.70;4.13;;;;;;;;;;5034171;28;20060;-73
2021/06/19 00:08:24;;;;;;;11.57;4.00;;;;;;;;;;5033596;28;20038;-73
2021/06/19 00:10:50;;;;;;;5.30;4.10;;;;;;;;;;5032943;28;20041;-73
2021/06/19 00:13:17;;;;;;;7.22;4.25;;;;;;;;;;5034158;28;20022;-73
2021/06/19 00:15:43;;;;;;;6.93;4.40;;;;;;;;;;5033435;28;20379;-73
2021/06/19 00:18:09;;;;;;;4.95;3.80;;;;;;;;;;5034084;28;20025;-74
2021/06/19 00:20:35;;;;;;;5.55;4.55;;;;;;;;;;5029881;28;20038;-73
2021/06/19 00:23:01;;;;;;;8.50;4.60;;;;;;;;;;5034501;28;20037;-73
2021/06/19 00:25:28;;;;;;;10.88;5.00;;;;;;;;;;5033298;28;20034;-73
2021/06/19 00:27:55;;;;;;;9.43;4.50;;;;;;;;;;5033648;28;20034;-74
2021/06/19 00:30:21;;;;;;;9.88;5.20;;;;;;;;;;5033603;28;20037;-73
2021/06/19 00:32:47;;;;;;;8.50;4.45;;;;;;;;;;5033596;28;20048;-73
2021/06/19 00:35:14;;;;;;;12.18;4.75;;;;;;;;;;5018210;28;20480;-73
2021/06/19 00:37:40;;;;;;;7.25;4.63;;;;;;;;;;5032437;28;20029;-73
2021/06/19 00:40:11;;;;;;;10.50;4.90;;;;;;;;;;5033240;28;20026;-74
2021/06/19 00:42:38;;;;;;;7.65;4.68;;;;;;;;;;5032571;28;20028;-74
2021/06/19 00:45:07;;;;;;;7.90;4.88;;;;;;;;;;5033319;28;20055;-74
2021/06/19 00:47:37;;;;;;;7.15;4.85;;;;;;;;;;5033154;28;20030;-74
2021/06/19 00:50:03;;;;;;;9.70;5.07;;;;;;;;;;5035362;28;20471;-74
2021/06/19 00:52:29;;;;;;;8.05;4.72;;;;;;;;;;5033616;28;20061;-73
2021/06/19 00:54:55;;;;;;;6.68;4.82;;;;;;;;;;5031782;28;20032;-74
2021/06/19 00:57:21;;;;;;;6.50;4.80;;;;;;;;;;5033331;28;20052;-73
2021/06/19 00:59:47;;;;;;;9.18;4.85;;;;;;;;;;5033135;28;20503;-73
2021/06/19 01:02:13;;;;;;;6.85;4.43;;;;;;;;;;5032841;28;20067;-73
2021/06/19 01:04:39;;;;;;;8.10;4.72;;;;;;;;;;5033247;28;20087;-74
2021/06/19 01:07:05;;;;;;;7.82;4.72;;;;;;;;;;5032378;28;20541;-73
2021/06/19 01:09:31;;;;;;;8.38;4.68;;;;;;;;;;5032922;28;20033;-74
2021/06/19 01:11:58;;;;;;;8.25;4.93;;;;;;;;;;5032059;28;20085;-73
2021/06/19 01:14:24;;;;;;;9.73;4.70;;;;;;;;;;5031400;28;20109;-73
2021/06/19 01:16:50;;;;;;;8.65;4.78;;;;;;;;;;5032161;28;20052;-73
2021/06/19 01:19:17;;;;;;;9.73;5.38;;;;;;;;;;5033276;28;20033;-73
2021/06/19 01:21:43;;;;;;;8.13;5.43;;;;;;;;;;5033430;28;20052;-74
2021/06/19 01:24:16;;;;;;;7.95;4.93;;;;;;;;;;5032954;28;20065;-73
2021/06/19 01:26:43;;;;;;;7.80;4.88;;;;;;;;;;5032268;28;20040;-73
2021/06/19 01:29:10;;;;;;;7.82;5.55;;;;;;;;;;5032736;28;20060;-73
2021/06/19 01:31:40;;;;;;;8.40;5.35;;;;;;;;;;5034145;28;20021;-73
2021/06/19 01:34:06;;;;;;;8.30;5.38;;;;;;;;;;5023074;28;20026;-73
2021/06/19 01:36:33;;;;;;;7.00;5.03;;;;;;;;;;5032858;28;20070;-73
2021/06/19 01:38:59;;;;;;;7.05;4.80;;;;;;;;;;5032906;28;20025;-73
2021/06/19 01:41:29;;;;;;;10.02;4.85;;;;;;;;;;5032359;28;20029;-73
2021/06/19 01:44:03;;;;;;;8.68;5.10;;;;;;;;;;5031546;28;20036;-73
2021/06/19 01:46:29;;;;;;;7.28;5.53;;;;;;;;;;5032105;28;20033;-73
2021/06/19 01:48:55;;;;;;;9.20;5.25;;;;;;;;;;5032125;28;20025;-74
2021/06/19 01:51:21;;;;;;;11.15;5.03;;;;;;;;;;5033233;28;20025;-73
2021/06/19 01:53:48;;;;;;;6.35;4.72;;;;;;;;;;5032408;28;20036;-72
2021/06/19 01:56:14;;;;;;;13.88;5.30;;;;;;;;;;5031690;28;20139;-73
2021/06/19 01:58:41;;;;;;;8.73;5.13;;;;;;;;;;5032039;28;20092;-73
2021/06/19 02:01:10;;;;;;;8.45;5.28;;;;;;;;;;5032133;28;20430;-73
2021/06/19 02:03:36;;;;;;;11.43;5.15;;;;;;;;;;5029150;28;20087;-73
2021/06/19 02:06:02;;;;;;;7.70;4.85;;;;;;;;;;5031637;28;20028;-73
2021/06/19 02:08:28;;;;;;;6.53;4.85;;;;;;;;;;5031298;28;20033;-73
2021/06/19 02:10:57;;;;;;;7.85;5.70;;;;;;;;;;5031657;28;20106;-73
2021/06/19 02:13:23;;;;;;;10.20;5.07;;;;;;;;;;5030558;28;20109;-73
2021/06/19 02:15:50;;;;;;;8.90;5.35;;;;;;;;;;5031564;28;20053;-73
2021/06/19 02:18:16;;;;;;;8.18;5.10;;;;;;;;;;5029739;28;20033;-73
2021/06/19 02:20:43;;;;;;;8.57;5.25;;;;;;;;;;5028034;28;20060;-73
2021/06/19 02:23:09;;;;;;;10.18;6.10;;;;;;;;;;5031606;28;20052;-73
2021/06/19 02:25:36;;;;;;;9.55;5.10;;;;;;;;;;5031853;28;20452;-73
2021/06/19 02:28:06;;;;;;;11.65;6.13;;;;;;;;;;5031392;28;20057;-73
2021/06/19 02:30:37;;;;;;;9.45;5.00;;;;;;;;;;5030565;28;20108;-73
2021/06/19 02:33:04;;;;;;;8.32;5.00;;;;;;;;;;5030163;28;20026;-72
2021/06/19 02:35:31;;;;;;;7.63;5.65;;;;;;;;;;5031865;28;20411;-72
2021/06/19 02:37:58;;;;;;;9.02;4.80;;;;;;;;;;5030993;28;20025;-72
2021/06/19 02:40:24;;;;;;;5.85;4.28;;;;;;;;;;5031758;28;20026;-73
2021/06/19 02:42:51;;;;;;;8.57;5.07;;;;;;;;;;5031202;28;20029;-73
2021/06/19 02:45:17;;;;;;;6.65;4.40;;;;;;;;;;5031244;28;20029;-73
2021/06/19 02:47:47;;;;;;;7.38;5.32;;;;;;;;;;5032064;28;20029;-73
2021/06/19 02:50:16;;;;;;;8.25;4.50;;;;;;;;;;5021195;28;20028;-72
2021/06/19 02:52:43;;;;;;;8.20;4.93;;;;;;;;;;5032763;28;20087;-72
2021/06/19 02:55:10;;;;;;;9.73;5.03;;;;;;;;;;5031455;28;20468;-73
2021/06/19 02:57:36;;;;;;;8.68;5.32;;;;;;;;;;5032068;28;20029;-73
2021/06/19 03:00:06;;;;;;;7.20;4.53;;;;;;;;;;5031119;28;20026;-73
2021/06/19 03:02:32;;;;;;;8.27;4.90;;;;;;;;;;5031621;28;20427;-72
2021/06/19 03:04:58;;;;;;;8.90;4.63;;;;;;;;;;5031250;28;20034;-73
2021/06/19 03:07:24;;;;;;;8.60;5.07;;;;;;;;;;5031323;28;20392;-73
2021/06/19 03:09:51;;;;;;;6.45;4.82;;;;;;;;;;5031227;28;20476;-73
2021/06/19 03:12:17;;;;;;;6.32;4.88;;;;;;;;;;5031616;28;20486;-72
2021/06/19 03:14:43;;;;;;;9.35;6.03;;;;;;;;;;5030665;28;20018;-73
2021/06/19 03:17:09;;;;;;;7.43;5.25;;;;;;;;;;5031795;28;20028;-72
2021/06/19 03:19:35;;;;;;;8.32;5.78;;;;;;;;;;5029165;28;20105;-73
2021/06/19 03:22:01;;;;;;;8.05;5.15;;;;;;;;;;5047767;28;20084;-73
2021/06/19 03:24:28;;;;;;;9.45;5.00;;;;;;;;;;5034824;28;20109;-73
2021/06/19 03:26:55;;;;;;;9.88;5.07;;;;;;;;;;5033368;28;20422;-73
2021/06/19 03:29:21;;;;;;;7.25;5.35;;;;;;;;;;5034721;28;20550;-73
2021/06/19 03:31:47;;;;;;;8.90;5.78;;;;;;;;;;5034805;28;20049;-72
2021/06/19 03:34:13;;;;;;;8.18;4.90;;;;;;;;;;5033976;28;20026;-73
2021/06/19 03:36:39;;;;;;;8.98;5.80;;;;;;;;;;5033658;28;20104;-71
2021/06/19 03:39:05;;;;;;;6.93;4.47;;;;;;;;;;5032844;28;20076;-72
2021/06/19 03:41:32;;;;;;;8.38;4.85;;;;;;;;;;5034974;28;20468;-73
2021/06/19 03:43:58;;;;;;;6.90;4.70;;;;;;;;;;5033853;28;20033;-72
2021/06/19 03:46:24;;;;;;;9.43;4.88;;;;;;;;;;5032542;28;20056;-73
2021/06/19 03:48:50;;;;;;;9.25;5.65;;;;;;;;;;5033268;28;20034;-73
2021/06/19 03:51:16;;;;;;;8.38;5.07;;;;;;;;;;5035001;28;20021;-72
2021/06/19 03:53:42;;;;;;;9.40;5.20;;;;;;;;;;5034233;28;20025;-72
2021/06/19 03:56:08;;;;;;;8.35;5.43;;;;;;;;;;5034425;28;20387;-72
2021/06/19 03:58:34;;;;;;;8.15;5.15;;;;;;;;;;5033740;28;20492;-73
2021/06/19 04:01:00;;;;;;;7.63;5.50;;;;;;;;;;5033107;28;20495;-73
2021/06/19 04:03:26;;;;;;;9.02;5.72;;;;;;;;;;5034406;28;20499;-72
2021/06/19 04:05:52;;;;;;;8.25;5.28;;;;;;;;;;5032552;28;20045;-73
2021/06/19 04:08:18;;;;;;;7.00;5.07;;;;;;;;;;5033433;28;20033;-73
2021/06/19 04:10:44;;;;;;;11.73;5.50;;;;;;;;;;5033781;28;20084;-73
2021/06/19 04:13:10;;;;;;;10.38;5.55;;;;;;;;;;5033325;28;20079;-73
2021/06/19 04:15:36;;;;;;;7.70;5.18;;;;;;;;;;5033162;28;20022;-73
2021/06/19 04:18:03;;;;;;;8.55;4.63;;;;;;;;;;5031781;28;20369;-72
2021/06/19 04:20:29;;;;;;;8.20;4.72;;;;;;;;;;5033543;28;20045;-73
2021/06/19 04:22:55;;;;;;;11.43;5.13;;;;;;;;;;5027639;28;20029;-72
2021/06/19 04:25:21;;;;;;;9.05;5.55;;;;;;;;;;5033492;28;20029;-73
2021/06/19 04:27:52;;;;;;;5.65;4.47;;;;;;;;;;5033710;28;20034;-72
2021/06/19 04:30:19;;;;;;;7.70;4.82;;;;;;;;;;5032955;28;20022;-73
2021/06/19 04:32:45;;;;;;;7.03;5.25;;;;;;;;;;5034040;28;20032;-72
2021/06/19 04:35:15;;;;;;;6.18;4.88;;;;;;;;;;5033491;28;20032;-73
2021/06/19 04:37:42;;;;;;;10.18;4.72;;;;;;;;;;5033405;28;20030;-73
2021/06/19 04:42:41;;;;;;;6.60;4.35;;;;;;;;;;5033898;28;20117;-72
2021/06/19 04:45:09;;;;;;;9.98;5.40;;;;;;;;;;5033403;28;20036;-72
2021/06/19 04:47:35;;;;;;;10.02;4.80;;;;;;;;;;5033216;28;20068;-73
2021/06/19 04:50:02;;;;;;;7.18;4.50;;;;;;;;;;5033050;28;20021;-73
2021/06/19 04:52:32;;;;;;;5.65;4.25;;;;;;;;;;5033283;28;20432;-71
2021/06/19 04:54:58;;;;;;;7.80;4.75;;;;;;;;;;5033165;28;20056;-72
2021/06/19 04:57:24;;;;;;;9.35;4.72;;;;;;;;;;5031825;28;20025;-72
2021/06/19 04:59:50;;;;;;;8.50;4.78;;;;;;;;;;5032582;28;20065;-72
2021/06/19 05:02:16;;;;;;;6.50;4.20;;;;;;;;;;5033428;28;20410;-72
2021/06/19 05:04:43;;;;;;;8.27;4.63;;;;;;;;;;5032080;28;20387;-72
2021/06/19 05:07:09;;;;;;;6.22;4.85;;;;;;;;;;5032733;28;20028;-72
2021/06/19 05:09:35;;;;;;;7.07;4.75;;;;;;;;;;5032360;28;20488;-72
2021/06/19 05:12:01;;;;;;;7.65;4.90;;;;;;;;;;5033003;28;20061;-71
2021/06/19 05:14:28;;;;;;;9.00;5.22;;;;;;;;;;5031891;28;20025;-71
2021/06/19 05:16:55;;;;;;;7.35;4.63;;;;;;;;;;5031762;28;20545;-71
2021/06/19 05:19:21;;;;;;;8.52;4.18;;;;;;;;;;5023534;28;20030;-71
2021/06/19 05:21:47;;;;;;;7.30;4.93;;;;;;;;;;5022551;28;20049;-71
2021/06/19 05:24:14;;;;;;;7.00;4.15;;;;;;;;;;5018000;28;20542;-71
2021/06/19 05:26:40;;;;;;;9.10;4.45;;;;;;;;;;5029779;28;20706;-71
2021/06/19 05:29:06;;;;;;;5.57;4.43;;;;;;;;;;5030996;28;20025;-72
2021/06/19 05:31:32;;;;;;;6.05;4.20;;;;;;;;;;5032177;28;20506;-72
2021/06/19 05:33:58;;;;;;;5.20;3.92;;;;;;;;;;5032534;28;20098;-71
2021/06/19 05:36:24;;;;;;;5.45;4.10;;;;;;;;;;5030852;28;20040;-72
2021/06/19 05:38:51;;;;;;;7.13;4.10;;;;;;;;;;5032265;28;20486;-72
2021/06/19 05:41:17;;;;;;;5.78;3.70;;;;;;;;;;5030378;28;20102;-72
2021/06/19 05:43:43;;;;;;;8.68;4.55;;;;;;;;;;5031752;28;20028;-72
2021/06/19 05:46:09;;;;;;;5.72;4.30;;;;;;;;;;5032465;28;20147;-71
2021/06/19 05:48:35;;;;;;;8.57;5.10;;;;;;;;;;5031658;28;20376;-71
2021/06/19 05:51:01;;;;;;;8.25;5.65;;;;;;;;;;5032067;28;20491;-72
2021/06/19 05:53:28;;;;;;;11.35;5.63;;;;;;;;;;5032063;28;20025;-72
2021/06/19 05:55:55;;;;;;;8.43;5.03;;;;;;;;;;5033206;28;20036;-73
2021/06/19 05:58:21;;;;;;;7.32;4.97;;;;;;;;;;5028993;28;20042;-72
2021/06/19 06:00:47;;;;;;;6.63;4.50;;;;;;;;;;5032290;28;20029;-72
2021/06/19 06:03:13;;;;;;;8.10;4.45;;;;;;;;;;5032002;28;20025;-71
2021/06/19 06:05:39;;;;;;;7.00;4.95;;;;;;;;;;5031565;28;20029;-71
2021/06/19 06:08:05;;;;;;;8.15;4.80;;;;;;;;;;5031965;28;20053;-72
2021/06/19 06:10:31;;;;;;;6.82;5.00;;;;;;;;;;5018469;28;20022;-73
2021/06/19 06:12:58;;;;;;;10.63;4.53;;;;;;;;;;5012655;28;20018;-73
2021/06/19 06:15:27;;;;;;;7.53;4.95;;;;;;;;;;5031344;28;20021;-73
2021/06/19 06:17:53;;;;;;;10.15;4.80;;;;;;;;;;5031156;28;20087;-73
2021/06/19 06:20:19;;;;;;;7.28;5.03;;;;;;;;;;5024942;28;20046;-73
2021/06/19 06:22:45;;;;;;;7.25;4.63;;;;;;;;;;5031380;28;20083;-73
2021/06/19 06:25:12;;;;;;;14.13;5.32;;;;;;;;;;5029802;28;20064;-73
2021/06/19 06:27:38;;;;;;;12.93;5.07;;;;;;;;;;5031885;28;20037;-73
2021/06/19 06:30:05;;;;;;;7.63;5.40;;;;;;;;;;5024765;28;20037;-73
2021/06/19 06:32:33;;;;;;;7.53;4.88;;;;;;;;;;5025630;28;20391;-73
2021/06/19 06:34:59;;;;;;;9.48;4.50;;;;;;;;;;5031115;28;20018;-73
2021/06/19 06:37:25;;;;;;;7.70;4.60;;;;;;;;;;5030180;28;20112;-73
2021/06/19 06:39:51;;;;;;;7.72;5.35;;;;;;;;;;5028614;28;20476;-73
2021/06/19 06:42:18;;;;;;;5.93;4.78;;;;;;;;;;5031915;28;20033;-73
2021/06/19 06:44:44;;;;;;;9.55;5.47;;;;;;;;;;5030607;28;20029;-73
2021/06/19 06:47:10;;;;;;;11.25;5.03;;;;;;;;;;5031130;28;20097;-73
2021/06/19 06:49:36;;;;;;;6.82;5.10;;;;;;;;;;5031360;28;20553;-73
2021/06/19 06:52:02;;;;;;;8.55;4.60;;;;;;;;;;5031866;28;20541;-73
2021/06/19 06:54:28;;;;;;;7.15;4.50;;;;;;;;;;5035175;28;20516;-73
2021/06/19 06:56:55;;;;;;;7.70;5.22;;;;;;;;;;5035070;28;20439;-73
2021/06/19 06:59:22;;;;;;;9.30;5.35;;;;;;;;;;5035830;28;20025;-73
2021/06/19 07:01:48;;;;;;;11.88;5.00;;;;;;;;;;5035049;28;20088;-73
2021/06/19 07:04:14;;;;;;;8.55;5.50;;;;;;;;;;5015923;28;20029;-73
2021/06/19 07:06:41;;;;;;;10.48;4.97;;;;;;;;;;5033118;28;20034;-73
2021/06/19 07:09:07;;;;;;;7.97;5.63;;;;;;;;;;5035414;28;20038;-73
2021/06/19 07:11:33;;;;;;;11.32;5.32;;;;;;;;;;5034867;28;20025;-73
2021/06/19 07:13:59;;;;;;;9.65;5.70;;;;;;;;;;5033993;28;20032;-73
2021/06/19 07:16:25;;;;;;;8.73;5.47;;;;;;;;;;5034408;28;20018;-73
2021/06/19 07:18:51;;;;;;;9.20;5.63;;;;;;;;;;5034243;28;20408;-73
2021/06/19 07:21:17;;;;;;;7.03;4.90;;;;;;;;;;5029072;28;20107;-73
2021/06/19 07:23:43;;;;;;;11.27;5.47;;;;;;;;;;5034214;28;20025;-74
2021/06/19 07:26:09;;;;;;;7.13;4.85;;;;;;;;;;5034631;28;20391;-73
2021/06/19 07:28:36;;;;;;;6.53;4.78;;;;;;;;;;5034218;28;20041;-74
2021/06/19 07:31:02;;;;;;;8.82;5.07;;;;;;;;;;5033508;28;20018;-73
2021/06/19 07:33:28;;;;;;;6.57;4.07;;;;;;;;;;5033323;28;20021;-73
2021/06/19 07:35:54;;;;;;;5.93;3.92;;;;;;;;;;5034418;28;20567;-74
2021/06/19 07:38:21;;;;;;;6.82;4.50;;;;;;;;;;5032934;28;20099;-74
2021/06/19 07:40:47;;;;;;;9.20;3.95;;;;;;;;;;5033775;28;20514;-73
2021/06/19 07:43:13;;;;;;;6.20;3.42;;;;;;;;;;5034178;28;20100;-74
2021/06/19 07:45:39;;;;;;;6.75;3.40;;;;;;;;;;5034146;28;20025;-73
2021/06/19 07:48:05;;;;;;;9.13;3.53;;;;;;;;;;5034154;28;20457;-73
2021/06/19 07:50:32;;;;;;;6.75;3.42;;;;;;;;;;5027856;28;20057;-74
2021/06/19 07:52:58;;;;;;;4.97;3.38;;;;;;;;;;5025788;28;20029;-73
2021/06/19 07:55:24;;;;;;;7.97;3.97;;;;;;;;;;5034334;28;20033;-74
2021/06/19 07:57:50;;;;;;;9.40;3.20;;;;;;;;;;5034129;28;20060;-73
2021/06/19 08:00:16;;;;;;;7.35;3.80;;;;;;;;;;5033933;28;20049;-74
2021/06/19 08:02:43;;;;;;;4.93;3.25;;;;;;;;;;5033224;28;20047;-73
2021/06/19 08:05:10;;;;;;;6.18;3.58;;;;;;;;;;5033391;28;20067;-73
2021/06/19 08:07:36;;;;;;;9.13;3.85;;;;;;;;;;5033405;28;20029;-74
2021/06/19 08:10:03;;;;;;;5.05;3.33;;;;;;;;;;5033854;28;20116;-73
2021/06/19 08:12:29;;;;;;;4.53;3.13;;;;;;;;;;5033580;28;20361;-73
2021/06/19 08:14:55;;;;;;;3.97;3.05;;;;;;;;;;5034358;28;20025;-73
2021/06/19 08:17:25;;;;;;;6.45;3.42;;;;;;;;;;5034025;28;20040;-73
2021/06/19 08:19:52;;;;;;;9.25;3.55;;;;;;;;;;5027208;28;20026;-73
2021/06/19 08:22:18;;;;;;;5.07;3.20;;;;;;;;;;5033949;28;20044;-74
2021/06/19 08:24:47;;;;;;;6.40;3.85;;;;;;;;;;5033870;28;20492;-73
2021/06/19 08:27:13;;;;;;;5.28;3.40;;;;;;;;;;5032973;28;20480;-74
2021/06/19 08:29:39;;;;;;;4.93;3.42;;;;;;;;;;5033596;28;20079;-73
2021/06/19 08:32:08;;;;;;;4.22;3.20;;;;;;;;;;5033431;28;20025;-73
2021/06/19 08:34:34;;;;;;;5.35;3.20;;;;;;;;;;5033731;28;20379;-73
2021/06/19 08:37:00;;;;;;;5.72;3.20;;;;;;;;;;5032900;28;20034;-74
2021/06/19 08:39:26;;;;;;;6.82;3.80;;;;;;;;;;5033209;28;20026;-72
2021/06/19 08:41:56;;;;;;;4.95;3.00;;;;;;;;;;5031783;28;20560;-72
2021/06/19 08:44:26;;;;;;;8.15;3.78;;;;;;;;;;5025582;28;20033;-73
2021/06/19 08:46:54;;;;;;;4.47;2.80;;;;;;;;;;5032932;28;20044;-73
2021/06/19 08:49:21;;;;;;;7.75;3.00;;;;;;;;;;5033996;28;20032;-73
2021/06/19 08:51:47;;;;;;;4.68;3.20;;;;;;;;;;5033158;28;20021;-72
2021/06/19 08:54:14;;;;;;;6.68;3.85;;;;;;;;;;5032186;28;20457;-72
2021/06/19 08:56:43;;;;;;;9.05;3.40;;;;;;;;;;5030739;28;20377;-73
2021/06/19 08:59:09;;;;;;;4.18;2.72;;;;;;;;;;5016066;28;20567;-72
2021/06/19 09:01:37;;;;;;;3.80;2.70;;;;;;;;;;5039421;28;20063;-72
2021/06/19 09:04:04;;;;;;;5.90;2.95;;;;;;;;;;5053309;28;20029;-72
2021/06/19 09:06:30;;;;;;;6.07;2.83;;;;;;;;;;5032546;28;20045;-72
2021/06/19 09:09:04;;;;;;;3.90;2.90;;;;;;;;;;5033213;28;20021;-72
2021/06/19 09:11:30;;;;;;;3.53;2.95;;;;;;;;;;5032826;28;20025;-72
2021/06/19 09:14:03;;;;;;;4.53;2.60;;;;;;;;;;5031854;28;20073;-71
2021/06/19 09:16:29;;;;;;;5.05;2.70;;;;;;;;;;5031766;28;20021;-72
2021/06/19 09:18:55;;;;;;;3.75;2.50;;;;;;;;;;5032838;28;20053;-72
2021/06/19 09:21:28;;;;;;;4.43;2.65;;;;;;;;;;5029032;28;20132;-72
2021/06/19 09:23:54;;;;;;;4.85;2.30;;;;;;;;;;5032333;28;20172;-72
2021/06/19 09:26:25;;;;;;;2.90;2.58;;;;;;;;;;5033222;28;20515;-72
2021/06/19 09:28:59;;;;;;;2.60;2.15;;;;;;;;;;5032078;28;20030;-72
2021/06/19 09:31:31;;;;;;;2.88;2.35;;;;;;;;;;5032341;28;20128;-71
2021/06/19 09:34:09;;;;;;;3.28;2.40;;;;;;;;;;5032898;28;20033;-71
2021/06/19 09:36:36;;;;;;;2.83;2.47;;;;;;;;;;5032829;28;20029;-72
2021/06/19 09:39:04;;;;;;;3.45;2.60;;;;;;;;;;5032762;28;20029;-72
2021/06/19 09:41:37;;;;;;;5.22;2.42;;;;;;;;;;5031217;28;20029;-71
2021/06/19 09:44:04;;;;;;;3.33;2.40;;;;;;;;;;5032465;28;20209;-72
2021/06/19 09:46:30;;;;;;;3.28;2.25;;;;;;;;;;5032619;28;20021;-72
2021/06/19 09:49:08;;;;;;;4.00;2.70;;;;;;;;;;5032708;28;20036;-72
2021/06/19 09:51:34;;;;;;;4.65;2.55;;;;;;;;;;5032459;28;20043;-72
2021/06/19 09:54:05;;;;;;;11.02;3.50;;;;;;;;;;5031319;28;20036;-73
2021/06/19 09:56:43;;;;;;;5.03;2.75;;;;;;;;;;5031035;28;20025;-72
2021/06/19 09:59:17;;;;;;;3.40;2.67;;;;;;;;;;5032304;28;20040;-72
2021/06/19 10:01:44;;;;;;;4.80;2.45;;;;;;;;;;5028827;28;20029;-72
2021/06/19 10:04:15;;;;;;;6.82;3.53;;;;;;;;;;5032409;28;20104;-72
2021/06/19 10:06:41;;;;;;;3.90;2.83;;;;;;;;;;5031826;28;20034;-72
2021/06/19 10:09:07;;;;;;;5.07;2.80;;;;;;;;;;5032348;28;20021;-72
2021/06/19 10:11:34;;;;;;;6.50;2.90;;;;;;;;;;5032066;28;20026;-72
2021/06/19 10:14:01;;;;;;;5.88;2.60;;;;;;;;;;5032388;28;20051;-72
2021/06/19 10:16:28;;;;;;;4.10;2.78;;;;;;;;;;5031729;28;20033;-72
2021/06/19 10:18:54;;;;;;;7.90;2.88;;;;;;;;;;5032018;28;20486;-72
2021/06/19 10:21:21;;;;;;;5.00;2.90;;;;;;;;;;5028266;28;20050;-72
2021/06/19 10:23:48;;;;;;;4.45;2.65;;;;;;;;;;5031921;28;20037;-72
2021/06/19 10:26:14;;;;;;;5.35;2.90;;;;;;;;;;5032711;28;20164;-73
2021/06/19 10:28:44;;;;;;;6.00;3.35;;;;;;;;;;5035271;28;20392;-72
2021/06/19 10:31:11;;;;;;;4.35;2.88;;;;;;;;;;5016641;28;20030;-72
2021/06/19 10:33:37;;;;;;;3.85;2.83;;;;;;;;;;5024976;28;20029;-71
2021/06/19 10:36:05;;;;;;;4.00;2.72;;;;;;;;;;5034969;28;20028;-72
2021/06/19 10:38:32;;;;;;;7.82;3.08;;;;;;;;;;5035658;28;20025;-72
2021/06/19 10:40:59;;;;;;;4.47;3.10;;;;;;;;;;5036052;28;20022;-73
2021/06/19 10:43:27;;;;;;;4.68;2.60;;;;;;;;;;5035219;28;20029;-72
2021/06/19 10:45:54;;;;;;;5.13;3.10;;;;;;;;;;5035478;28;20383;-72
2021/06/19 10:48:30;;;;;;;6.00;3.22;;;;;;;;;;5035961;28;20037;-72
2021/06/19 10:51:16;;;;;;;4.18;2.95;;;;;;;;;;5035364;28;20029;-72
2021/06/19 10:54:01;;;;;;;5.28;3.30;;;;;;;;;;5035742;28;20018;-71
2021/06/19 10:56:45;;;;;;;4.40;2.95;;;;;;;;;;5035125;28;20029;-72
2021/06/19 10:59:15;;;;;;;5.20;3.10;;;;;;;;;;5035814;28;20021;-72
2021/06/19 11:01:41;;;;;;;6.65;2.97;;;;;;;;;;5034260;28;20034;-71
2021/06/19 11:04:27;;;;;;;6.47;3.22;;;;;;;;;;5035805;28;20032;-72
2021/06/19 11:06:53;;;;;;;4.07;3.28;;;;;;;;;;5035650;28;20036;-72
2021/06/19 11:09:26;;;;;;;6.05;3.20;;;;;;;;;;5035455;28;20113;-73
2021/06/19 11:11:52;;;;;;;4.05;2.80;;;;;;;;;;5034928;28;20501;-72
2021/06/19 11:14:37;;;;;;;4.18;2.60;;;;;;;;;;5034924;28;20040;-72
2021/06/19 11:17:03;;;;;;;7.15;3.13;;;;;;;;;;5035541;28;20024;-72
2021/06/19 11:19:33;;;;;;;2.92;2.63;;;;;;;;;;5029732;28;20026;-72
2021/06/19 11:22:31;;;;;;;3.42;2.42;;;;;;;;;;5015447;28;20042;-72
2021/06/19 11:25:14;;;;;;;3.08;2.30;;;;;;;;;;5014636;28;20050;-72
2021/06/19 11:27:49;;;;;;;4.13;2.42;;;;;;;;;;5028893;28;20039;-73
2021/06/19 11:33:21;;;;;;;7.32;2.65;;;;;;;;;;5030692;28;20026;-72
2021/06/19 11:36:05;;;;;;;4.93;2.42;;;;;;;;;;5035233;28;20105;-72
2021/06/19 11:38:50;;;;;;;3.80;2.70;;;;;;;;;;5033682;28;20061;-72
2021/06/19 11:41:18;;;;;;;3.58;2.20;;;;;;;;;;5035092;28;20030;-73
2021/06/19 11:43:45;;;;;;;4.20;2.47;;;;;;;;;;5033003;28;20029;-73
2021/06/19 11:46:12;;;;;;;4.32;2.25;;;;;;;;;;5034891;28;20396;-72
2021/06/19 11:48:57;;;;;;;4.65;2.65;;;;;;;;;;5034175;28;20430;-72
2021/06/19 11:51:28;;;;;;;4.60;2.70;;;;;;;;;;5034816;28;20507;-72
2021/06/19 11:53:54;;;;;;;4.28;2.42;;;;;;;;;;5033979;28;20029;-72
2021/06/19 11:56:24;;;;;;;7.32;3.03;;;;;;;;;;5034828;28;20079;-72
2021/06/19 11:58:51;;;;;;;7.43;2.75;;;;;;;;;;5033066;28;20037;-72
2021/06/19 12:01:23;;;;;;;5.25;2.78;;;;;;;;;;5033506;28;20030;-72
2021/06/19 12:03:49;;;;;;;4.60;2.50;;;;;;;;;;5034273;28;20025;-72
2021/06/19 12:06:16;;;;;;;3.78;3.10;;;;;;;;;;5034660;28;20029;-72
2021/06/19 12:08:42;;;;;;;7.55;2.67;;;;;;;;;;5033408;28;20037;-72
2021/06/19 12:11:08;;;;;;;5.25;2.90;;;;;;;;;;5033264;28;20021;-72
2021/06/19 12:13:36;;;;;;;2.72;2.10;;;;;;;;;;5033807;28;20033;-72
2021/06/19 12:16:03;;;;;;;6.53;2.30;;;;;;;;;;5034476;28;20022;-73
2021/06/19 12:18:29;;;;;;;3.03;2.00;;;;;;;;;;5033006;28;20033;-72
2021/06/19 12:20:57;;;;;;;5.47;2.60;;;;;;;;;;5024162;28;20499;-72
2021/06/19 12:23:23;;;;;;;5.10;2.75;;;;;;;;;;5034264;28;20369;-72
2021/06/19 12:25:49;;;;;;;4.47;2.63;;;;;;;;;;5033603;28;20027;-72
2021/06/19 12:28:24;;;;;;;4.93;2.53;;;;;;;;;;5034202;28;20026;-72
2021/06/19 12:30:50;;;;;;;;;;;;;;;;;;5034350;28;20025;-72
2021/06/19 12:33:22;;;;;;;5.40;2.78;;;;;;;;;;5034141;28;19905;-72
2021/06/19 12:35:48;;;;;;;4.25;2.35;;;;;;;;;;5032038;28;20503;-73
2021/06/19 12:38:18;;;;;;;4.35;2.58;;;;;;;;;;5033895;28;20036;-72
2021/06/19 12:40:44;;;;;;;4.20;2.45;;;;;;;;;;5032296;28;20671;-72
2021/06/19 12:43:10;;;;;;;2.47;2.28;;;;;;;;;;5033931;28;20151;-72
2021/06/19 12:45:49;;;;;;;2.63;2.30;;;;;;;;;;5033545;28;20034;-72
2021/06/19 12:48:26;;;;;;;3.38;2.20;;;;;;;;;;5033691;28;20034;-71
2021/06/19 12:50:53;;;;;;;6.10;2.83;;;;;;;;;;5012381;28;20033;-72
2021/06/19 12:53:25;;;;;;;3.35;2.60;;;;;;;;;;5019442;28;20424;-71
2021/06/19 12:55:54;;;;;;;3.22;2.40;;;;;;;;;;5033560;28;20496;-72
2021/06/19 12:58:21;;;;;;;5.28;2.58;;;;;;;;;;5033476;28;20096;-71
2021/06/19 13:00:54;;;;;;;4.32;2.72;;;;;;;;;;5033005;28;20036;-72
2021/06/19 13:03:24;;;;;;;4.75;3.30;;;;;;;;;;5033348;28;20033;-72
2021/06/19 13:05:52;;;;;;;4.50;2.67;;;;;;;;;;5032935;28;20044;-72
2021/06/19 13:08:19;;;;;;;3.10;2.60;;;;;;;;;;5033175;28;20052;-72
2021/06/19 13:10:45;;;;;;;5.40;2.25;;;;;;;;;;5032842;28;20029;-72
2021/06/19 13:13:11;;;;;;;6.35;2.67;;;;;;;;;;5033173;28;20484;-72
2021/06/19 13:15:37;;;;;;;5.13;2.53;;;;;;;;;;5030869;28;20418;-72
2021/06/19 13:18:14;;;;;;;3.42;2.35;;;;;;;;;;5032309;28;20035;-72
2021/06/19 13:20:40;;;;;;;3.05;2.30;;;;;;;;;;5018094;28;20060;-72
2021/06/19 13:23:07;;;;;;;3.85;2.78;;;;;;;;;;5022840;28;20540;-72
2021/06/19 13:25:51;;;;;;;4.32;2.50;;;;;;;;;;5032961;28;20022;-72
2021/06/19 13:28:18;;;;;;;3.00;2.70;;;;;;;;;;5032347;28;20081;-71
2021/06/19 13:30:44;;;;;;;6.00;3.10;;;;;;;;;;5032914;28;20079;-72
2021/06/19 13:33:10;;;;;;;3.45;2.50;;;;;;;;;;5031905;28;20568;-72
2021/06/19 13:35:46;;;;;;;11.77;2.70;;;;;;;;;;5032534;28;20144;-73
2021/06/19 13:38:12;;;;;;;4.50;2.30;;;;;;;;;;5031114;28;20112;-74
2021/06/19 13:40:38;;;;;;;4.28;2.30;;;;;;;;;;5032722;28;20021;-72
2021/06/19 13:43:04;;;;;;;4.53;2.67;;;;;;;;;;5030520;28;20029;-73
2021/06/19 13:45:30;;;;;;;4.05;2.03;;;;;;;;;;5031028;28;20557;-72
2021/06/19 13:47:57;;;;;;;4.70;2.35;;;;;;;;;;5031285;28;20109;-72
2021/06/19 13:50:23;;;;;;;4.25;2.80;;;;;;;;;;5032567;28;20026;-73
2021/06/19 13:52:49;;;;;;;3.15;2.20;;;;;;;;;;5031584;28;20029;-73
2021/06/19 13:55:19;;;;;;;3.70;2.25;;;;;;;;;;5031752;28;20033;-72
2021/06/19 13:57:45;;;;;;;4.78;2.45;;;;;;;;;;5031632;28;20071;-71
2021/06/19 14:00:11;;;;;;;4.13;2.20;;;;;;;;;;5032085;28;20444;-72
2021/06/19 14:02:37;;;;;;;4.45;2.30;;;;;;;;;;5031664;28;20033;-73
2021/06/19 14:05:04;;;;;;;4.40;2.38;;;;;;;;;;5031839;28;20029;-73
2021/06/19 14:07:30;;;;;;;5.05;2.50;;;;;;;;;;5031570;28;20034;-73
2021/06/19 14:09:56;;;;;;;3.40;2.22;;;;;;;;;;5031184;28;20506;-73
2021/06/19 14:12:22;;;;;;;3.67;2.10;;;;;;;;;;5032318;28;20034;-73
2021/06/19 14:14:49;;;;;;;4.35;2.40;;;;;;;;;;5031498;28;20029;-72
2021/06/19 14:17:15;;;;;;;4.50;2.20;;;;;;;;;;5032126;28;20053;-72
2021/06/19 14:19:41;;;;;;;4.10;2.20;;;;;;;;;;5030786;28;20025;-72
2021/06/19 14:22:07;;;;;;;5.47;2.15;;;;;;;;;;5030052;28;20048;-73
2021/06/19 14:24:34;;;;;;;3.58;2.20;;;;;;;;;;5031934;28;20035;-72
2021/06/19 14:27:10;;;;;;;5.25;2.35;;;;;;;;;;5031376;28;20025;-73
2021/06/19 14:29:36;;;;;;;2.88;1.95;;;;;;;;;;5032112;28;20021;-72
2021/06/19 14:32:02;;;;;;;4.03;2.15;;;;;;;;;;5031160;28;20026;-73
2021/06/19 14:34:28;;;;;;;2.53;2.25;;;;;;;;;;5027437;28;20030;-73
2021/06/19 14:36:54;;;;;;;3.40;1.85;;;;;;;;;;5031354;28;20028;-73
2021/06/19 14:39:20;;;;;;;2.33;2.00;;;;;;;;;;5024839;28;20128;-72
2021/06/19 14:41:46;;;;;;;3.22;2.00;;;;;;;;;;5012036;28;20026;-73
2021/06/19 14:44:13;;;;;;;2.72;1.90;;;;;;;;;;5029271;28;20376;-73
2021/06/19 14:46:39;;;;;;;2.10;1.88;;;;;;;;;;5031199;28;20037;-73
2021/06/19 14:49:05;;;;;;;3.25;1.90;;;;;;;;;;5031948;28;20022;-73
2021/06/19 14:51:31;;;;;;;2.60;1.85;;;;;;;;;;5031088;28;20483;-72